createdAt,value
2023-05-09T00:01:22.811Z,70.80
2023-05-09T00:03:51.434Z,70.80
2023-05-09T00:06:19.493Z,70.50
2023-05-09T00:08:46.250Z,70.50
2023-05-09T00:11:12.935Z,71.00
2023-05-09T00:13:39.706Z,70.50
2023-05-09T00:16:06.713Z,71.00
2023-05-09T00:18:33.982Z,70.40
2023-05-09T00:21:03.130Z,70.90
2023-05-09T00:23:30.963Z,71.40
2023-05-09T00:25:58.330Z,71.60
2023-05-09T00:28:24.971Z,71.60
2023-05-09T00:30:51.592Z,71.30
2023-05-09T00:33:19.002Z,71.40
2023-05-09T00:35:46.083Z,71.60
2023-05-09T00:38:13.270Z,71.50
2023-05-09T00:40:39.911Z,71.30
2023-05-09T00:43:06.732Z,71.50
2023-05-09T00:45:33.493Z,72.50
2023-05-09T00:48:00.237Z,72.20
2023-05-09T00:50:26.980Z,72.40
2023-05-09T00:52:53.715Z,72.60
2023-05-09T00:55:20.427Z,72.50
2023-05-09T00:57:47.027Z,73.10
2023-05-09T01:00:14.359Z,72.90
2023-05-09T01:02:47.690Z,72.80
2023-05-09T01:05:15.339Z,72.90
2023-05-09T01:08:07.687Z,72.80
2023-05-09T01:10:53.690Z,73.00
2023-05-09T01:13:44.327Z,72.20
2023-05-09T01:16:19.386Z,74.30
2023-05-09T01:18:51.060Z,74.00
2023-05-09T01:21:23.978Z,74.00
2023-05-09T01:24:20.730Z,74.30
2023-05-09T01:27:32.888Z,74.30
2023-05-09T01:30:02.378Z,74.20
2023-05-09T01:32:31.992Z,74.70
2023-05-09T01:35:02.680Z,74.90
2023-05-09T01:37:31.980Z,74.40
2023-05-09T01:40:04.668Z,74.90
2023-05-09T01:42:47.739Z,75.30
2023-05-09T01:45:15.703Z,75.00
2023-05-09T01:47:43.809Z,75.10
2023-05-09T01:50:12.631Z,75.10
2023-05-09T01:52:41.100Z,76.00
2023-05-09T01:55:08.919Z,75.80
2023-05-09T01:57:37.368Z,75.70
2023-05-09T02:00:08.023Z,76.30
2023-05-09T02:02:35.854Z,76.50
2023-05-09T02:05:03.232Z,76.50
2023-05-09T02:07:30.808Z,77.00
2023-05-09T02:09:59.062Z,77.20
2023-05-09T02:12:26.664Z,77.60
2023-05-09T02:14:53.418Z,77.60
2023-05-09T02:17:21.925Z,77.70
2023-05-09T02:19:48.534Z,78.00
2023-05-09T02:22:15.812Z,77.70
2023-05-09T02:24:45.278Z,78.30
2023-05-09T02:27:12.907Z,78.30
2023-05-09T02:29:47.407Z,78.70
2023-05-09T02:32:27.026Z,79.00
2023-05-09T02:34:55.537Z,79.20
2023-05-09T02:37:23.506Z,79.30
2023-05-09T02:39:50.394Z,79.90
2023-05-09T02:42:21.907Z,79.40
2023-05-09T02:44:48.574Z,80.20
2023-05-09T02:47:15.245Z,80.20
2023-05-09T02:49:41.907Z,81.00
2023-05-09T02:52:08.552Z,80.80
2023-05-09T02:54:35.160Z,81.10
2023-05-09T02:57:01.804Z,82.30
2023-05-09T02:59:28.610Z,81.90
2023-05-09T03:01:55.461Z,81.90
2023-05-09T03:04:22.164Z,82.50
2023-05-09T03:06:48.905Z,82.40
2023-05-09T03:09:15.524Z,82.90
2023-05-09T03:11:42.271Z,82.70
2023-05-09T03:14:10.626Z,83.10
2023-05-09T03:16:37.575Z,83.60
2023-05-09T03:19:04.252Z,84.60
2023-05-09T03:21:32.065Z,84.50
2023-05-09T03:23:59.003Z,84.90
2023-05-09T03:26:26.512Z,84.90
2023-05-09T03:28:53.150Z,85.60
2023-05-09T03:31:19.828Z,86.20
2023-05-09T03:33:46.546Z,86.50
2023-05-09T03:36:13.198Z,86.00
2023-05-09T03:38:39.777Z,86.60
2023-05-09T03:41:06.386Z,86.60
2023-05-09T03:43:32.990Z,86.70
2023-05-09T03:45:59.588Z,87.60
2023-05-09T03:48:26.203Z,87.60
2023-05-09T03:50:52.866Z,88.10
2023-05-09T03:53:20.383Z,88.00
2023-05-09T03:55:47.125Z,88.40
2023-05-09T03:58:14.700Z,89.40
2023-05-09T04:00:41.806Z,89.80
2023-05-09T04:03:08.601Z,89.90
2023-05-09T04:05:35.456Z,90.10
2023-05-09T04:08:02.577Z,90.00
2023-05-09T04:10:30.342Z,90.20
2023-05-09T04:12:57.050Z,90.50
2023-05-09T04:15:23.701Z,90.50
2023-05-09T04:17:50.401Z,90.40
2023-05-09T04:20:17.043Z,90.50
2023-05-09T04:22:45.403Z,90.80
2023-05-09T04:25:14.982Z,90.90
2023-05-09T04:27:41.816Z,90.80
2023-05-09T04:30:09.359Z,91.20
2023-05-09T04:32:36.849Z,91.50
2023-05-09T04:35:04.147Z,91.10
2023-05-09T04:37:32.751Z,91.40
2023-05-09T04:39:59.516Z,91.40
2023-05-09T04:42:26.274Z,91.40
2023-05-09T04:44:53.304Z,91.90
2023-05-09T04:47:19.943Z,91.80
2023-05-09T04:49:46.583Z,92.00
2023-05-09T04:52:13.227Z,92.30
2023-05-09T04:54:39.858Z,92.20
2023-05-09T04:57:17.417Z,92.20
2023-05-09T04:59:44.835Z,92.20
2023-05-09T05:02:11.504Z,92.50
2023-05-09T05:04:38.292Z,92.30
2023-05-09T05:07:05.305Z,92.30
2023-05-09T05:09:31.913Z,92.80
2023-05-09T05:12:02.441Z,92.80
2023-05-09T05:14:30.387Z,93.30
2023-05-09T05:16:57.034Z,92.90
2023-05-09T05:19:23.667Z,92.80
2023-05-09T05:21:50.368Z,95.10
2023-05-09T05:24:17.115Z,94.20
2023-05-09T05:26:43.824Z,96.00
2023-05-09T05:29:10.548Z,92.70
2023-05-09T05:31:37.318Z,93.30
2023-05-09T05:34:04.093Z,91.50
2023-05-09T05:36:32.124Z,91.60
2023-05-09T05:38:58.776Z,91.70
2023-05-09T05:41:26.326Z,90.90
2023-05-09T05:43:54.303Z,90.00
2023-05-09T05:46:21.453Z,91.20
2023-05-09T05:48:48.251Z,90.70
2023-05-09T05:51:14.983Z,90.10
2023-05-09T05:53:42.068Z,90.40
2023-05-09T05:56:08.798Z,94.10
2023-05-09T05:58:35.510Z,92.30
2023-05-09T06:01:02.471Z,90.20
2023-05-09T06:03:29.209Z,90.40
2023-05-09T06:05:56.462Z,86.90
2023-05-09T06:08:23.156Z,88.90
2023-05-09T06:10:49.756Z,90.40
2023-05-09T06:13:16.466Z,91.20
2023-05-09T06:15:43.144Z,91.50
2023-05-09T06:18:09.925Z,91.80
2023-05-09T06:20:36.567Z,92.10
2023-05-09T06:23:03.193Z,92.30
2023-05-09T06:25:29.823Z,92.00
2023-05-09T06:27:56.499Z,92.10
2023-05-09T06:30:26.842Z,91.80
2023-05-09T06:32:54.693Z,92.40
2023-05-09T06:35:21.781Z,92.10
2023-05-09T06:37:49.145Z,92.30
2023-05-09T06:40:16.560Z,92.50
2023-05-09T06:42:43.339Z,92.40
2023-05-09T06:45:10.636Z,92.60
2023-05-09T06:47:37.375Z,92.00
2023-05-09T06:50:04.238Z,92.40
2023-05-09T06:52:30.872Z,92.20
2023-05-09T06:54:57.460Z,92.50
2023-05-09T06:57:24.109Z,92.30
2023-05-09T06:59:50.732Z,92.40
2023-05-09T07:02:17.439Z,92.50
2023-05-09T07:04:44.141Z,92.40
2023-05-09T07:07:10.873Z,92.40
2023-05-09T07:09:37.548Z,92.20
2023-05-09T07:12:04.550Z,92.30
2023-05-09T07:14:31.274Z,92.20
2023-05-09T07:17:09.920Z,92.30
2023-05-09T07:19:44.646Z,92.30
2023-05-09T07:22:11.330Z,92.30
2023-05-09T07:24:37.930Z,91.40
2023-05-09T07:27:04.610Z,92.00
2023-05-09T07:29:31.339Z,91.50
2023-05-09T07:31:58.231Z,91.60
2023-05-09T07:34:25.449Z,90.90
2023-05-09T07:36:52.285Z,90.60
2023-05-09T07:39:19.010Z,90.80
2023-05-09T07:41:47.874Z,90.60
2023-05-09T07:44:15.850Z,90.50
2023-05-09T07:46:42.728Z,90.90
2023-05-09T07:49:09.580Z,90.50
2023-05-09T07:51:36.209Z,90.70
2023-05-09T07:54:02.934Z,90.40
2023-05-09T07:56:29.591Z,90.10
2023-05-09T07:58:56.240Z,90.30
2023-05-09T08:01:22.871Z,90.00
2023-05-09T08:03:49.660Z,90.20
2023-05-09T08:06:16.453Z,90.40
2023-05-09T08:08:43.064Z,90.10
2023-05-09T08:11:09.745Z,89.40
2023-05-09T08:13:36.753Z,88.90
2023-05-09T08:16:03.589Z,88.50
2023-05-09T08:18:30.336Z,88.80
2023-05-09T08:20:58.562Z,87.10
2023-05-09T08:23:26.248Z,88.00
2023-05-09T08:25:54.521Z,87.60
2023-05-09T08:28:24.085Z,88.00
2023-05-09T08:30:51.674Z,86.40
2023-05-09T08:33:18.335Z,86.10
2023-05-09T08:35:45.342Z,85.30
2023-05-09T08:38:11.945Z,85.90
2023-05-09T08:40:38.663Z,85.80
2023-05-09T08:43:07.122Z,85.80
2023-05-09T08:45:38.095Z,84.00
2023-05-09T08:48:06.570Z,84.90
2023-05-09T08:50:33.376Z,86.20
2023-05-09T08:53:00.072Z,84.70
2023-05-09T08:55:27.598Z,85.30
2023-05-09T08:57:54.363Z,90.60
2023-05-09T09:00:21.676Z,84.90
2023-05-09T09:02:49.097Z,83.90
2023-05-09T09:05:39.395Z,83.20
2023-05-09T09:08:05.361Z,82.30
2023-05-09T09:10:32.970Z,81.70
2023-05-09T09:13:00.791Z,82.80
2023-05-09T09:15:36.920Z,80.70
2023-05-09T09:18:10.073Z,79.20
2023-05-09T09:20:44.886Z,79.30
2023-05-09T09:23:12.690Z,80.00
2023-05-09T09:25:39.549Z,79.80
2023-05-09T09:28:06.433Z,81.00
2023-05-09T09:30:33.185Z,80.40
2023-05-09T09:33:00.452Z,78.60
2023-05-09T09:35:27.468Z,78.70
2023-05-09T09:38:00.121Z,77.90
2023-05-09T09:40:26.965Z,78.10
2023-05-09T09:42:53.664Z,77.90
2023-05-09T09:45:20.487Z,77.60
2023-05-09T09:47:48.849Z,79.40
2023-05-09T09:50:17.951Z,77.90
2023-05-09T09:52:57.631Z,77.70
2023-05-09T09:55:24.885Z,77.10
2023-05-09T09:57:52.145Z,77.70
2023-05-09T10:00:26.345Z,76.60
2023-05-09T10:02:55.209Z,75.40
2023-05-09T10:05:26.398Z,74.80
2023-05-09T10:08:01.892Z,73.70
2023-05-09T10:10:30.090Z,74.40
2023-05-09T10:12:58.733Z,73.80
2023-05-09T10:18:01.655Z,73.30
2023-05-09T10:20:29.302Z,73.10
2023-05-09T10:23:02.189Z,74.70
2023-05-09T10:25:42.136Z,73.00
2023-05-09T10:28:13.334Z,71.70
2023-05-09T10:31:09.190Z,72.20
2023-05-09T10:33:52.234Z,72.50
2023-05-09T10:36:20.878Z,71.70
2023-05-09T10:38:48.967Z,71.20
2023-05-09T10:41:17.055Z,70.60
2023-05-09T10:43:45.164Z,69.70
2023-05-09T10:46:13.249Z,70.40
2023-05-09T10:48:40.888Z,70.50
2023-05-09T10:51:08.611Z,70.00
2023-05-09T10:53:49.687Z,69.50
2023-05-09T10:56:43.369Z,69.60
2023-05-09T10:59:32.798Z,70.00
2023-05-09T11:02:01.175Z,70.00
2023-05-09T11:04:28.029Z,68.90
2023-05-09T11:06:55.849Z,69.80
2023-05-09T11:09:38.995Z,69.50
2023-05-09T11:12:05.826Z,67.50
2023-05-09T11:14:33.782Z,68.00
2023-05-09T11:17:05.134Z,68.60
2023-05-09T11:19:38.793Z,67.60
2023-05-09T11:22:15.661Z,68.30
2023-05-09T11:24:47.265Z,67.70
2023-05-09T11:27:24.236Z,67.60
2023-05-09T11:29:57.338Z,67.80
2023-05-09T11:32:44.297Z,68.50
2023-05-09T11:35:19.512Z,67.10
2023-05-09T11:38:00.335Z,67.50
2023-05-09T11:40:28.314Z,66.70
2023-05-09T11:42:58.357Z,66.90
2023-05-09T11:45:27.692Z,66.40
2023-05-09T11:47:54.540Z,66.10
2023-05-09T11:50:21.827Z,65.90
2023-05-09T11:52:49.511Z,66.00
2023-05-09T11:55:22.552Z,65.00
2023-05-09T11:57:51.599Z,66.20
2023-05-09T12:00:20.392Z,65.60
2023-05-09T12:02:47.707Z,65.50
2023-05-09T12:05:16.595Z,66.20
2023-05-09T12:07:43.546Z,66.30
2023-05-09T12:10:13.179Z,66.40
2023-05-09T12:12:50.992Z,64.90
2023-05-09T12:15:18.612Z,65.60
2023-05-09T12:17:49.636Z,65.10
2023-05-09T12:20:18.008Z,65.20
2023-05-09T12:22:44.651Z,65.40
2023-05-09T12:25:11.960Z,64.70
2023-05-09T12:27:40.250Z,65.10
2023-05-09T12:30:11.987Z,65.20
2023-05-09T12:32:40.304Z,64.80
2023-05-09T12:35:09.599Z,64.70
2023-05-09T12:37:36.382Z,64.80
2023-05-09T12:40:12.811Z,64.60
2023-05-09T12:42:42.912Z,64.70
2023-05-09T12:45:10.312Z,64.60
2023-05-09T12:47:38.946Z,64.80
2023-05-09T12:50:07.573Z,65.50
2023-05-09T12:52:39.621Z,65.00
2023-05-09T12:55:13.253Z,65.20
2023-05-09T12:57:41.794Z,64.70
2023-05-09T13:00:10.190Z,65.30
2023-05-09T13:02:43.304Z,64.20
2023-05-09T13:05:15.910Z,63.90
2023-05-09T13:07:45.897Z,64.40
2023-05-09T13:10:21.733Z,65.20
2023-05-09T13:12:49.244Z,65.30
2023-05-09T13:15:17.442Z,65.20
2023-05-09T13:17:44.393Z,65.30
2023-05-09T13:20:11.158Z,64.90
2023-05-09T13:22:38.026Z,63.40
2023-05-09T13:25:05.531Z,63.00
2023-05-09T13:27:33.347Z,64.20
2023-05-09T13:30:00.205Z,63.60
2023-05-09T13:32:27.348Z,62.70
2023-05-09T13:34:54.008Z,63.70
2023-05-09T13:37:21.632Z,63.00
2023-05-09T13:39:48.784Z,62.20
2023-05-09T13:42:17.279Z,62.70
2023-05-09T13:44:45.706Z,62.70
2023-05-09T13:47:12.449Z,64.00
2023-05-09T13:49:39.089Z,63.70
2023-05-09T13:52:06.629Z,63.90
2023-05-09T13:54:35.067Z,63.80
2023-05-09T13:57:03.662Z,62.80
2023-05-09T13:59:31.933Z,62.80
2023-05-09T14:01:59.989Z,62.20
2023-05-09T14:04:31.961Z,63.70
2023-05-09T14:06:59.812Z,62.10
2023-05-09T14:09:26.856Z,62.60
2023-05-09T14:11:53.934Z,63.10
2023-05-09T14:14:21.920Z,63.10
2023-05-09T14:16:49.621Z,62.30
2023-05-09T14:19:17.063Z,62.00
2023-05-09T14:21:44.478Z,62.60
2023-05-09T14:24:15.064Z,61.90
2023-05-09T14:26:42.738Z,61.90
2023-05-09T14:29:09.907Z,60.60
2023-05-09T14:31:37.011Z,59.50
2023-05-09T14:34:05.143Z,60.30
2023-05-09T14:36:34.864Z,60.10
2023-05-09T14:39:01.593Z,60.20
2023-05-09T14:41:28.254Z,61.20
2023-05-09T14:43:54.933Z,60.10
2023-05-09T14:46:22.690Z,60.30
2023-05-09T14:48:49.282Z,61.20
2023-05-09T14:51:15.886Z,59.60
2023-05-09T14:53:42.545Z,60.30
2023-05-09T14:56:11.425Z,61.90
2023-05-09T14:58:38.335Z,59.90
2023-05-09T15:01:05.081Z,58.60
2023-05-09T15:03:32.062Z,59.50
2023-05-09T15:05:59.152Z,58.70
2023-05-09T15:08:26.007Z,60.70
2023-05-09T15:10:52.873Z,63.20
2023-05-09T15:13:19.709Z,59.10
2023-05-09T15:15:46.461Z,58.80
2023-05-09T15:18:15.447Z,58.30
2023-05-09T15:20:42.623Z,58.10
2023-05-09T15:23:09.517Z,57.80
2023-05-09T15:25:36.217Z,59.10
2023-05-09T15:28:02.967Z,57.90
2023-05-09T15:30:29.671Z,56.60
2023-05-09T15:32:56.653Z,57.40
2023-05-09T15:35:23.474Z,62.50
2023-05-09T15:37:50.327Z,60.90
2023-05-09T15:40:17.197Z,61.00
2023-05-09T15:42:44.023Z,57.10
2023-05-09T15:45:10.772Z,58.80
2023-05-09T15:47:37.468Z,57.50
2023-05-09T15:50:04.509Z,58.00
2023-05-09T15:52:31.276Z,55.50
2023-05-09T15:54:58.109Z,55.60
2023-05-09T15:57:25.031Z,58.70
2023-05-09T15:59:55.015Z,57.40
2023-05-09T16:02:23.030Z,57.50
2023-05-09T16:04:49.805Z,58.60
2023-05-09T16:07:16.547Z,55.50
2023-05-09T16:09:43.518Z,54.00
2023-05-09T16:12:10.302Z,52.40
2023-05-09T16:14:36.985Z,52.60
2023-05-09T16:17:03.664Z,49.00
2023-05-09T16:19:30.954Z,51.80
2023-05-09T16:21:57.654Z,50.90
2023-05-09T16:24:24.717Z,53.90
2023-05-09T16:26:51.348Z,51.90
2023-05-09T16:29:17.971Z,52.00
2023-05-09T16:31:44.957Z,51.30
2023-05-09T16:34:11.997Z,51.30
2023-05-09T16:36:39.418Z,48.20
2023-05-09T16:39:06.071Z,49.40
2023-05-09T16:41:32.835Z,52.20
2023-05-09T16:44:00.144Z,52.20
2023-05-09T16:46:26.768Z,51.00
2023-05-09T16:48:53.428Z,51.30
2023-05-09T16:51:20.069Z,49.20
2023-05-09T16:53:46.752Z,49.00
2023-05-09T16:56:13.604Z,50.20
2023-05-09T16:58:40.253Z,51.40
2023-05-09T17:01:07.066Z,54.00
2023-05-09T17:03:34.201Z,54.10
2023-05-09T17:06:00.795Z,55.60
2023-05-09T17:08:27.531Z,54.30
2023-05-09T17:10:54.121Z,56.70
2023-05-09T17:13:20.838Z,57.60
2023-05-09T17:15:47.629Z,58.30
2023-05-09T17:18:19.358Z,57.50
2023-05-09T17:20:52.352Z,54.90
2023-05-09T17:23:18.953Z,56.20
2023-05-09T17:25:45.546Z,57.40
2023-05-09T17:28:12.334Z,58.30
2023-05-09T17:30:39.551Z,56.60
2023-05-09T17:33:06.341Z,56.00
2023-05-09T17:35:33.032Z,59.10
2023-05-09T17:37:59.664Z,59.70
2023-05-09T17:40:26.405Z,58.90
2023-05-09T17:42:53.235Z,55.50
2023-05-09T17:45:20.753Z,55.10
2023-05-09T17:47:47.537Z,58.50
2023-05-09T17:50:16.955Z,60.50
2023-05-09T17:52:44.596Z,56.70
2023-05-09T17:55:11.606Z,58.60
2023-05-09T17:57:38.262Z,60.30
2023-05-09T18:00:09.036Z,56.90
2023-05-09T18:02:35.895Z,56.80
2023-05-09T18:05:02.626Z,55.80
2023-05-09T18:07:29.222Z,60.90
2023-05-09T18:09:55.936Z,60.40
2023-05-09T18:12:22.679Z,59.70
2023-05-09T18:14:49.332Z,62.00
2023-05-09T18:17:16.038Z,59.70
2023-05-09T18:19:42.772Z,60.40
2023-05-09T18:22:09.422Z,60.30
2023-05-09T18:24:36.783Z,56.10
2023-05-09T18:27:04.214Z,58.80
2023-05-09T18:29:30.870Z,60.00
2023-05-09T18:31:57.727Z,61.50
2023-05-09T18:34:25.533Z,55.50
2023-05-09T18:36:52.562Z,58.50
2023-05-09T18:39:19.330Z,59.20
2023-05-09T18:41:46.025Z,60.70
2023-05-09T18:44:12.701Z,60.70
2023-05-09T18:46:39.371Z,58.80
2023-05-09T18:49:06.251Z,60.40
2023-05-09T18:51:35.652Z,62.20
2023-05-09T18:54:03.003Z,60.20
2023-05-09T18:56:29.674Z,61.20
2023-05-09T18:58:56.487Z,60.60
2023-05-09T19:01:24.251Z,62.10
2023-05-09T19:03:54.360Z,60.90
2023-05-09T19:06:21.933Z,62.40
2023-05-09T19:08:48.669Z,62.80
2023-05-09T19:11:16.049Z,60.00
2023-05-09T19:13:48.487Z,61.60
2023-05-09T19:16:17.160Z,63.10
2023-05-09T19:18:44.008Z,59.80
2023-05-09T19:21:13.067Z,61.80
2023-05-09T19:23:39.772Z,60.70
2023-05-09T19:26:06.407Z,60.70
2023-05-09T19:28:34.415Z,60.50
2023-05-09T19:31:02.213Z,59.30
2023-05-09T19:33:28.901Z,60.10
2023-05-09T19:35:55.716Z,61.50
2023-05-09T19:38:22.623Z,61.50
2023-05-09T19:40:49.914Z,63.00
2023-05-09T19:43:16.793Z,62.70
2023-05-09T19:45:43.464Z,61.90
2023-05-09T19:48:15.469Z,61.10
2023-05-09T19:50:43.053Z,61.70
2023-05-09T19:53:09.865Z,59.90
2023-05-09T19:55:37.160Z,63.20
2023-05-09T19:58:04.025Z,59.10
2023-05-09T20:00:31.899Z,59.60
2023-05-09T20:02:58.794Z,61.50
2023-05-09T20:05:25.642Z,59.80
2023-05-09T20:07:52.293Z,62.00
2023-05-09T20:10:18.921Z,61.20
2023-05-09T20:12:45.688Z,63.40
2023-05-09T20:15:12.586Z,60.00
2023-05-09T20:17:39.358Z,61.40
2023-05-09T20:20:06.836Z,61.80
2023-05-09T20:22:33.583Z,62.00
2023-05-09T20:25:00.247Z,61.70
2023-05-09T20:27:26.924Z,61.90
2023-05-09T20:29:53.794Z,60.30
2023-05-09T20:32:22.246Z,61.50
2023-05-09T20:34:48.975Z,62.50
2023-05-09T20:37:16.012Z,64.30
2023-05-09T20:39:42.736Z,61.40
2023-05-09T20:42:09.483Z,60.00
2023-05-09T20:44:37.677Z,63.10
2023-05-09T20:47:04.738Z,61.30
2023-05-09T20:49:31.678Z,62.40
2023-05-09T20:51:58.439Z,59.90
2023-05-09T20:54:25.749Z,64.00
2023-05-09T20:56:52.557Z,63.80
2023-05-09T20:59:19.162Z,60.00
2023-05-09T21:01:45.845Z,60.70
2023-05-09T21:04:12.501Z,61.90
2023-05-09T21:06:39.193Z,62.60
2023-05-09T21:09:06.228Z,62.10
2023-05-09T21:11:32.918Z,63.40
2023-05-09T21:13:59.583Z,65.50
2023-05-09T21:16:26.541Z,65.30
2023-05-09T21:18:53.235Z,62.90
2023-05-09T21:21:19.883Z,62.90
2023-05-09T21:23:46.518Z,64.50
2023-05-09T21:26:13.176Z,63.70
2023-05-09T21:28:39.775Z,63.50
2023-05-09T21:31:07.640Z,62.20
2023-05-09T21:33:36.287Z,63.30
2023-05-09T21:36:02.937Z,64.80
2023-05-09T21:38:29.746Z,62.80
2023-05-09T21:40:56.586Z,63.30
2023-05-09T21:43:23.219Z,64.30
2023-05-09T21:45:49.831Z,62.80
2023-05-09T21:48:16.572Z,62.60
2023-05-09T21:50:46.286Z,62.60
2023-05-09T21:53:13.561Z,63.00
2023-05-09T21:55:40.652Z,63.10
2023-05-09T21:58:07.261Z,63.90
2023-05-09T22:00:33.925Z,64.00
2023-05-09T22:03:01.108Z,64.50
2023-05-09T22:05:28.295Z,64.30
2023-05-09T22:07:54.903Z,64.20
2023-05-09T22:10:21.568Z,64.00
2023-05-09T22:12:48.345Z,64.60
2023-05-09T22:15:15.226Z,64.00
2023-05-09T22:17:41.948Z,64.70
2023-05-09T22:20:09.331Z,64.70
2023-05-09T22:22:36.021Z,64.30
2023-05-09T22:25:06.621Z,64.80
2023-05-09T22:27:33.266Z,64.90
2023-05-09T22:29:59.962Z,65.00
2023-05-09T22:32:26.664Z,65.30
2023-05-09T22:34:54.171Z,65.30
2023-05-09T22:37:20.871Z,65.40
2023-05-09T22:39:47.532Z,66.40
2023-05-09T22:42:14.214Z,66.40
2023-05-09T22:44:40.926Z,66.70
2023-05-09T22:47:08.111Z,66.90
2023-05-09T22:49:35.521Z,67.20
2023-05-09T22:52:02.575Z,67.30
2023-05-09T22:54:29.188Z,67.10
2023-05-09T22:56:55.798Z,67.50
2023-05-09T22:59:22.645Z,67.70
2023-05-09T23:01:49.582Z,67.40
2023-05-09T23:04:16.368Z,68.60
2023-05-09T23:06:42.981Z,68.60
2023-05-09T23:09:10.551Z,68.70
2023-05-09T23:11:37.614Z,69.20
2023-05-09T23:14:04.327Z,69.20
2023-05-09T23:16:30.954Z,69.20
2023-05-09T23:18:57.634Z,69.10
2023-05-09T23:21:24.232Z,69.20
2023-05-09T23:23:50.889Z,70.00
2023-05-09T23:26:17.511Z,69.90
2023-05-09T23:28:44.137Z,69.80
2023-05-09T23:31:10.889Z,70.00
2023-05-09T23:33:37.577Z,70.00
2023-05-09T23:36:04.504Z,70.30
2023-05-09T23:38:31.195Z,70.50
2023-05-09T23:40:59.884Z,70.70
2023-05-09T23:43:26.649Z,70.70
2023-05-09T23:45:53.221Z,70.70
2023-05-09T23:48:19.914Z,71.20
2023-05-09T23:50:46.557Z,70.90
2023-05-09T23:53:13.558Z,71.40
2023-05-09T23:55:40.207Z,71.20
2023-05-09T23:58:06.805Z,70.60
